• Join FlightAware (Why Join?)
  • Login
  • US Flag 
10:05PM EDT


 

Airport Tracker/Info


-or-


 

Live Flight TrackerFlight Track Log ✈ VNR104 ✈ 13-May-2013 ✈ KBIL - KFSD

Flight Track Log - Related Links

Times and Time Zones

All times are in EDT time to prevent confusion due to time zone crossing. See the VNR104 flight status page for this flight to view local times or setup timezone preferences in your user account.

Time Position Orientation Groundspeed Altitude Reporting Facility
EDT Latitude Longitude Course Direction KTS MPH feet Rate Location/Type
03:01PM 45.8983 -108.6011 356° North 210 242 7,300  Level Salt Lake Center
03:02PM 45.8922 -108.5158 96° East 228 262 9,200 1,740 Climbing Salt Lake Center
03:03PM 45.8750 -108.4131 103° East 245 282 10,900 1,800 Climbing Salt Lake Center
03:04PM 45.8608 -108.3067 101° East 270 311 13,000 2,100 Climbing Salt Lake Center
03:05PM 45.7150 -107.8527 101° East  Level Estimated
03:05PM 45.8447 -108.1947 102° East 268 308 15,300  Level Salt Lake Center
03:06PM 45.8294 -108.0897 102° East 270 311 17,400 1,920 Climbing Salt Lake Center
03:07PM 45.8139 -107.9817 102° East 281 323 19,300 1,560 Climbing Salt Lake Center
03:08PM 45.7986 -107.8678 101° East 293 337 20,700 1,500 Climbing Salt Lake Center
03:09PM 45.7775 -107.7272 102° East 319 367 22,400 1,500 Climbing Salt Lake Center
03:10PM 45.7600 -107.6058 102° East 325 374 23,800 1,500 Climbing Salt Lake Center
03:11PM 45.7386 -107.4633 102° East 328 377 25,500 1,500 Climbing Salt Lake Center
03:12PM 45.7206 -107.3422 102° East 325 374 27,000 1,440 Climbing Salt Lake Center
03:13PM 45.7033 -107.2219 102° East 322 371 28,500 1,260 Climbing Salt Lake Center
03:14PM 45.6825 -107.0833 102° East 320 368 29,600 780 Climbing Salt Lake Center
03:15PM 45.6625 -106.9550 103° East 334 384 30,200 660 Climbing Salt Lake Center
03:16PM 45.6367 -106.7978 103° East 354 407 31,000 360 Climbing Salt Lake Center
03:17PM 45.6147 -106.6564 102° East 368 423 31,000  Level Salt Lake Center
03:18PM 45.5911 -106.4897 101° East 380 437 31,000  Level Salt Lake Center
03:19PM 45.5678 -106.3392 102° East 399 459 31,000  Level Salt Lake Center
03:20PM 45.5392 -106.1608 103° East 410 472 31,000  Level Salt Lake Center
03:21PM 45.5147 -106.0086 103° East 411 473 31,000  Level Salt Lake Center
03:22PM 45.4894 -105.8556 103° East 413 475 31,000  Level Salt Lake Center
03:23PM 45.4603 -105.6778 103° East 412 474 31,000  Level Salt Lake Center
03:25PM 45.4347 -105.5253 103° East 413 475 31,000  Level Salt Lake Center
03:26PM 45.4053 -105.3483 103° East 412 474 31,000  Level Salt Lake Center
03:27PM 45.3797 -105.1969 103° East 411 473 31,000  Level Salt Lake Center
03:28PM 45.3492 -105.0217 104° East 409 471 31,000  Level Salt Lake Center
03:29PM 45.3242 -104.8708 103° East 409 471 31,000  Level Salt Lake Center
03:30PM 45.2981 -104.7217 104° East 407 468 31,000  Level Salt Lake Center
03:31PM 45.2661 -104.5453 104° East 412 474 31,000  Level Salt Lake Center
03:32PM 45.2397 -104.3992 104° East 409 471 31,000  Level Salt Lake Center
03:33PM 45.2125 -104.2447 104° East 406 467 31,000  Level Salt Lake Center
03:34PM 45.1825 -104.0775 104° East 406 467 31,000  Level Salt Lake Center
03:35PM 45.1517 -103.9053 104° East 404 465 31,000  Level Salt Lake Center
03:36PM 45.1242 -103.7569 105° East 405 466 31,000  Level Salt Lake Center
03:36PM 45.1175 -103.7250 106° East 405 466 31,000  Level Denver Center
03:37PM 45.0928 -103.5831 104° East 407 468 31,000  Level Salt Lake Center
03:38PM 45.0650 -103.4353 105° East 408 470 31,000  Level Salt Lake Center
03:39PM 45.0375 -103.2864 105° East 409 471 31,000  Level Salt Lake Center
03:40PM 44.9931 -103.0769 107° East 409 471 31,000  Level Minneapolis Center
03:41PM 44.9631 -102.9217 105° East 410 472 31,000  Level Minneapolis Center
03:42PM 44.9331 -102.7675 105° East 410 472 31,000  Level Minneapolis Center
03:43PM 44.9053 -102.6128 104° East 409 471 31,000  Level Minneapolis Center
03:44PM 44.8744 -102.4583 106° East 409 471 31,000  Level Minneapolis Center
03:45PM 44.8442 -102.3036 105° East 410 472 31,000  Level Minneapolis Center
03:46PM 44.8056 -102.1181 106° East 411 473 31,000  Level Minneapolis Center
03:47PM 44.7744 -101.9636 106° East 411 473 31,000  Level Minneapolis Center
03:48PM 44.7444 -101.8106 105° East 410 472 31,000  Level Minneapolis Center
03:49PM 44.7139 -101.6586 106° East 408 470 31,000  Level Minneapolis Center
03:50PM 44.6833 -101.5081 106° East 405 466 31,000  Level Minneapolis Center
03:52PM 44.6531 -101.3567 106° East 404 465 31,000  Level Minneapolis Center
03:53PM 44.6208 -101.2056 107° East 405 466 31,000  Level Minneapolis Center
03:54PM 44.5817 -101.0242 107° East 405 466 31,000  Level Minneapolis Center
03:55PM 44.5556 -100.9025 107° East 406 467 31,000  Level Minneapolis Center
03:56PM 44.5239 -100.7506 106° East 408 470 31,000  Level Minneapolis Center
03:57PM 44.4842 -100.5697 107° East 407 468 31,000  Level Minneapolis Center
03:58PM 44.4514 -100.4200 107° East 405 466 31,000  Level Minneapolis Center
03:59PM 44.4192 -100.2697 107° East 405 466 31,000  Level Minneapolis Center
04:00PM 44.3797 -100.0911 107° East 404 465 31,000  Level Minneapolis Center
04:01PM 44.3472 -99.9414 107° East 405 466 31,000  Level Minneapolis Center
04:02PM 44.3144 -99.7919 107° East 405 466 31,000  Level Minneapolis Center
04:03PM 44.2808 -99.6425 107° East 406 467 31,000  Level Minneapolis Center
04:04PM 44.2464 -99.4933 108° East 406 467 31,000  Level Minneapolis Center
04:05PM 44.2069 -99.3133 107° East 406 467 31,000  Level Minneapolis Center
04:06PM 44.1633 -99.1361 109° East 405 466 31,000  Level Minneapolis Center
04:07PM 44.1297 -98.9864 107° East 406 467 31,000  Level Minneapolis Center
04:08PM 44.0944 -98.8367 108° East 407 468 31,000  Level Minneapolis Center
04:09PM 44.0611 -98.6894 107° East 407 468 31,000  Level Minneapolis Center
04:10PM 44.0317 -98.5719 109° East 405 466 31,000 -300 Level Minneapolis Center
04:11PM 43.9903 -98.3906 108° East 411 473 30,500 -1,800 Descending Minneapolis Center
04:12PM 43.9458 -98.2053 108° East 421 484 27,400 -2,760 Descending Minneapolis Center
04:13PM 43.9100 -98.0569 108° East 411 473 24,800 -2,520 Descending Minneapolis Center
04:14PM 43.8742 -97.9122 109° East 402 463 22,200 -2,400 Descending Minneapolis Center
04:15PM 43.8392 -97.7717 109° East 393 452 19,900 -2,340 Descending Minneapolis Center
04:16PM 43.8064 -97.6394 109° East 375 432 17,500 -2,220 Descending Minneapolis Center
04:17PM 43.7756 -97.5117 108° East 358 412 15,400 -2,100 Descending Minneapolis Center
04:18PM 43.7439 -97.3869 109° East 349 402 13,200 -2,280 Descending Minneapolis Center
04:20PM 43.7081 -97.2414 109° East 339 390 10,700 -2,100 Descending Minneapolis Center
04:21PM 43.6772 -97.1214 110° East 337 388 8,900 -1,800 Descending Minneapolis Center
04:22PM 43.6500 -97.0064 108° East 330 380 7,100 -1,800 Descending Minneapolis Center
04:23PM 43.6486 -96.8925 91° East 314 361 5,300 -1,620 Descending Minneapolis Center
04:24PM 43.6492 -96.7850 90° East 299 344 3,900 -1,260 Descending Minneapolis Center
04:25PM 43.6378 -96.7139 102° East 215 247 2,500 -960 Descending Minneapolis Center
04:26PM 43.6056 -96.7186 186° South 152 175 1,800 60 Descending Minneapolis Center
04:27PM 43.5789 -96.7736 236° Southwest 153 176 2,700 240 Climbing Minneapolis Center
04:28PM 43.6219 -96.8089 329° Northwest 175 201 2,300 -120 Descending Minneapolis Center
04:29PM 43.6364 -96.7472 72° East 180 207 2,500 -240 Climbing Minneapolis Center
04:30PM 43.6078 -96.7192 145° Southeast 160 184 1,900 -600 Descending Minneapolis Center
04:32PM 43.5820 -96.7419 115° Southeast  Level Estimated
04:39PM 43.5820 -96.7419 115° Southeast  Level Estimated